»·PEaware :: AAY77 KSMX-KLAS

AAY77 :: KSMX-KLAS

FLIGHT INFORMATION

Flight Status: Arrived
Operator:
Allegiant Air
More flights by this operator :: More flights under this callsign
Pilot: Ben L. (6391)
Aircraft: AIRBUS A319
(A319)
More flights by this aircraft type
Origin: KSMX Santa Maria Pub/Capt Hancock
United States
Destination: KLAS McCarran Intl
United States
More flights between these airports :: More routes between these airports
Route: BUELT4 RZS PMD MISEN KEPEC6
File this flight plan on PilotEdge
Remarks:
Altitude:
(Current/Filed)
27,000ft
Speed:
(Current/Filed)
450kts
Departed: 16-Aug-19 03:59 PM
Arrived: 16-Aug-19 04:53 PM
Distance/Time
Traveled:
269nm/0:54
Distance/Time
To Go:
Arrived

Flight Plot

Page will automatically refresh every two minutes.

Flight plan parsing failed; only flown route is shown


Map Options




Map Legend


Flown Route
Filed Route
Departure Airport
Arrival Airport
Navaid (VOR, NDB)
Fix

Horizontal Profiles

Position Reports

Time Latitude Longitude Heading Altitude Ground
Speed
16-Aug-19 14:45 34.898476 -120.447831 46 270ft 0kts
16-Aug-19 14:46 34.898476 -120.447831 46 270ft 0kts
16-Aug-19 14:47 34.898476 -120.447831 46 270ft 0kts
16-Aug-19 14:48 34.898476 -120.447831 46 270ft 0kts
16-Aug-19 14:49 34.898476 -120.447831 46 270ft 0kts
16-Aug-19 14:50 34.898476 -120.447831 46 270ft 0kts
16-Aug-19 14:51 34.898476 -120.447831 46 270ft 0kts
16-Aug-19 14:52 34.898476 -120.447831 46 270ft 0kts
16-Aug-19 14:53 34.898476 -120.447831 46 270ft 0kts
16-Aug-19 14:54 34.898476 -120.447831 46 270ft 0kts
16-Aug-19 14:55 34.898476 -120.447831 46 270ft 0kts
16-Aug-19 14:56 34.898476 -120.447831 46 270ft 0kts
16-Aug-19 14:57 34.898476 -120.447831 46 270ft 0kts
16-Aug-19 14:58 34.898476 -120.447831 46 270ft 0kts
16-Aug-19 14:59 34.898476 -120.447831 46 270ft 0kts
16-Aug-19 15:00 34.898476 -120.447831 46 270ft 0kts
16-Aug-19 15:01 34.898476 -120.447831 46 270ft 0kts
16-Aug-19 15:02 34.898476 -120.447831 46 270ft 0kts
16-Aug-19 15:03 34.898476 -120.447831 46 270ft 0kts
16-Aug-19 15:04 34.898476 -120.447831 46 270ft 0kts
16-Aug-19 15:05 34.898476 -120.447831 46 270ft 0kts
16-Aug-19 15:06 34.898476 -120.447831 46 270ft 0kts
16-Aug-19 15:07 34.898476 -120.447831 46 270ft 0kts
16-Aug-19 15:08 34.898476 -120.447831 46 270ft 0kts
16-Aug-19 15:09 34.898476 -120.447831 46 270ft 0kts
16-Aug-19 15:10 34.898476 -120.447831 46 270ft 0kts
16-Aug-19 15:11 34.898476 -120.447831 46 270ft 0kts
16-Aug-19 15:12 34.898476 -120.447831 46 270ft 0kts
16-Aug-19 15:13 34.898476 -120.447831 46 270ft 0kts
16-Aug-19 15:14 34.898476 -120.447831 46 270ft 0kts
16-Aug-19 15:15 34.898476 -120.447831 46 270ft 0kts
16-Aug-19 15:16 34.898476 -120.447831 46 270ft 0kts
16-Aug-19 15:17 34.898476 -120.447831 46 270ft 0kts
16-Aug-19 15:18 34.898476 -120.447831 46 270ft 0kts
16-Aug-19 15:19 34.898476 -120.447831 46 270ft 0kts
16-Aug-19 15:20 34.898476 -120.447831 46 270ft 0kts
16-Aug-19 15:21 34.898476 -120.447831 46 270ft 0kts
16-Aug-19 15:22 34.898476 -120.447831 46 270ft 0kts
16-Aug-19 15:23 34.898476 -120.447831 46 270ft 0kts
16-Aug-19 15:24 34.898476 -120.447831 46 270ft 0kts
16-Aug-19 15:25 34.898476 -120.447831 46 270ft 0kts
16-Aug-19 15:26 34.898476 -120.447831 46 270ft 0kts
16-Aug-19 15:27 34.898476 -120.447831 46 270ft 0kts
16-Aug-19 15:28 34.898476 -120.447831 46 270ft 0kts
16-Aug-19 15:29 34.898476 -120.447831 46 270ft 0kts
16-Aug-19 15:30 34.898476 -120.447831 46 270ft 0kts
16-Aug-19 15:31 34.898476 -120.447831 46 270ft 0kts
16-Aug-19 15:32 34.898476 -120.447831 46 270ft 0kts
16-Aug-19 15:33 34.898476 -120.447831 46 270ft 0kts
16-Aug-19 15:34 34.898476 -120.447831 46 270ft 0kts
16-Aug-19 15:35 34.898476 -120.447831 46 270ft 0kts
16-Aug-19 15:36 34.898476 -120.447831 46 270ft 0kts
16-Aug-19 15:37 34.898476 -120.447831 46 270ft 0kts
16-Aug-19 15:38 34.898476 -120.447831 46 270ft 0kts
16-Aug-19 15:39 34.898476 -120.447831 46 270ft 0kts
16-Aug-19 15:40 34.898476 -120.447831 46 270ft 0kts
16-Aug-19 15:41 34.898476 -120.447831 46 270ft 0kts
16-Aug-19 15:43 34.898476 -120.447831 46 270ft 0kts
16-Aug-19 15:44 34.898476 -120.447831 46 270ft 0kts
16-Aug-19 15:45 34.898476 -120.447831 46 270ft 0kts
16-Aug-19 15:46 34.898476 -120.447831 46 270ft 0kts
16-Aug-19 15:47 34.898476 -120.447831 46 270ft 0kts
16-Aug-19 15:48 34.898476 -120.447831 46 270ft 0kts
16-Aug-19 15:49 34.898476 -120.447831 46 270ft 0kts
16-Aug-19 15:50 34.898476 -120.447831 46 270ft 0kts
16-Aug-19 15:51 34.898476 -120.447831 46 270ft 0kts
16-Aug-19 15:52 34.898476 -120.447831 46 270ft 0kts
16-Aug-19 15:53 34.898170 -120.448176 42 270ft 2kts
16-Aug-19 15:54 34.898131 -120.448219 41 270ft 0kts
16-Aug-19 15:55 34.897774 -120.447615 149 270ft 8kts
16-Aug-19 15:56 34.897403 -120.447435 166 270ft 1kts
16-Aug-19 15:57 34.895093 -120.446093 134 270ft 16kts
16-Aug-19 15:58 34.893483 -120.445221 183 270ft 1kts
16-Aug-19 15:59 34.897765 -120.451847 316 270ft 115kts
16-Aug-19 16:00 34.933939 -120.474794 14 2346ft 174kts
16-Aug-19 16:01 34.948139 -120.418057 131 4611ft 247kts
16-Aug-19 16:02 34.881775 -120.379607 135 7096ft 286kts
16-Aug-19 16:03 34.834523 -120.299633 129 10129ft 295kts
16-Aug-19 16:03 34.789062 -120.227445 127 11670ft 355kts
16-Aug-19 16:05 34.716526 -120.108821 128 14879ft 387kts
16-Aug-19 16:06 34.650820 -120.001389 128 17551ft 403kts
16-Aug-19 16:06 34.594173 -119.909015 128 19609ft 415kts
16-Aug-19 16:07 34.525267 -119.794329 119 21466ft 427kts
16-Aug-19 16:08 34.518325 -119.649687 85 23629ft 442kts
16-Aug-19 16:09 34.530475 -119.499251 85 25393ft 455kts
16-Aug-19 16:10 34.542307 -119.343389 85 26911ft 469kts
16-Aug-19 16:11 34.554084 -119.184348 85 26953ft 471kts
16-Aug-19 16:12 34.565585 -119.026474 85 26950ft 470kts
16-Aug-19 16:13 34.576972 -118.866658 85 27014ft 475kts
16-Aug-19 16:14 34.588280 -118.706106 84 27101ft 477kts
16-Aug-19 16:15 34.599411 -118.545092 84 27057ft 475kts
16-Aug-19 16:16 34.610247 -118.384917 84 27001ft 477kts
16-Aug-19 16:17 34.620656 -118.227894 85 26963ft 478kts
16-Aug-19 16:18 34.634260 -118.065507 77 26967ft 477kts
16-Aug-19 16:19 34.675442 -117.911473 69 26962ft 477kts
16-Aug-19 16:20 34.719318 -117.760742 69 26936ft 477kts
16-Aug-19 16:21 34.763442 -117.607719 69 26934ft 477kts
16-Aug-19 16:26 34.980154 -116.843457 71 26884ft 485kts
16-Aug-19 16:27 35.023655 -116.687626 72 26046ft 479kts
16-Aug-19 16:28 35.066045 -116.534866 73 24879ft 469kts
16-Aug-19 16:29 35.112144 -116.395129 56 23861ft 463kts
16-Aug-19 16:30 35.199663 -116.281763 47 23865ft 463kts
16-Aug-19 16:31 35.288693 -116.170065 43 23878ft 458kts
16-Aug-19 16:32 35.375678 -116.060455 42 22854ft 444kts
16-Aug-19 16:33 35.460429 -115.953492 43 20534ft 429kts
16-Aug-19 16:34 35.542018 -115.850045 43 18174ft 414kts
16-Aug-19 16:35 35.619702 -115.751256 44 14632ft 390kts
16-Aug-19 16:36 35.688240 -115.663762 44 12862ft 320kts
16-Aug-19 16:37 35.750947 -115.585765 31 12851ft 318kts
16-Aug-19 16:38 35.836645 -115.571126 0 12884ft 314kts
16-Aug-19 16:39 35.924355 -115.566389 1 12859ft 314kts
16-Aug-19 16:40 35.989516 -115.509319 68 11944ft 317kts
16-Aug-19 16:41 36.019855 -115.410317 67 10997ft 290kts
16-Aug-19 16:42 36.027008 -115.320142 95 10279ft 274kts
16-Aug-19 16:43 36.020045 -115.226641 95 9138ft 267kts
16-Aug-19 16:44 36.039640 -115.150733 42 8542ft 232kts
16-Aug-19 16:45 36.086571 -115.098402 41 7554ft 224kts
16-Aug-19 16:46 36.130956 -115.050390 41 6444ft 222kts
16-Aug-19 16:47 36.182012 -115.017986 336 5844ft 208kts
16-Aug-19 16:48 36.188270 -115.072135 241 5106ft 177kts
16-Aug-19 16:49 36.152697 -115.116061 215 3740ft 188kts
16-Aug-19 16:50 36.112950 -115.145246 203 2414ft 144kts
16-Aug-19 16:51 36.084136 -115.161790 205 2142ft 56kts
16-Aug-19 16:52 36.081616 -115.161750 89 2147ft 0kts
16-Aug-19 16:53 36.081624 -115.158666 90 2137ft 18kts
16-Aug-19 16:54 36.083515 -115.154632 35 2121ft 18kts
16-Aug-19 16:55 36.083400 -115.152645 174 2113ft 0kts
16-Aug-19 16:56 36.083400 -115.152645 174 2113ft 0kts
16-Aug-19 16:57 36.083400 -115.152645 174 2113ft 0kts
16-Aug-19 16:58 36.083400 -115.152645 174 2113ft 0kts
16-Aug-19 16:59 36.083400 -115.152645 174 2113ft 0kts
16-Aug-19 17:00 36.083400 -115.152645 174 2113ft 0kts
16-Aug-19 17:01 36.083400 -115.152645 174 2113ft 0kts
16-Aug-19 17:02 36.083400 -115.152645 174 2113ft 0kts

Navigation Log

Ident Type
Flight plan parsing failed, navigation log unavailable